San Antonio, Texas
Traffic Map
Current Weather Conditions
San Antonio, Texas
Overcast
Overcast
70°
Feels Like: 70°
Wind Chill: 70° Ceiling: 700
Heat Index: 70° Visibility: 10mi
Dew Point: 68° Wind: 9mph
Humidity: 94% Direction: 120° (ESE)
Pressure: 29.91in Gusts: 0mph
Raw Report DataKSKF 241518Z AUTO 12008KT 10SM OVC007 21/20 A2991 RMK AO2 $
Traffic Incident Summary
Active as of:
Severity:
Category:
InformationThere was an issue retrieving the traffic information for this location. Please try a different location or try again shortly.
Advertisements
Track Severe Weather on mobile